sensor_id;sensor_type;location;lat;lon;timestamp;pressure;altitude;pressure_sealevel;temperature;humidity
498;BME280;39559;48.630;9.162;2023-06-14T00:01:38;96995.56;;;9.65;100.00
498;BME280;39559;48.630;9.162;2023-06-14T00:06:00;97006.75;;;9.48;100.00
498;BME280;39559;48.630;9.162;2023-06-14T00:08:30;97004.84;;;9.52;100.00
498;BME280;39559;48.630;9.162;2023-06-14T00:10:57;96995.19;;;9.92;100.00
498;BME280;39559;48.630;9.162;2023-06-14T00:13:23;97000.03;;;9.44;100.00
498;BME280;39559;48.630;9.162;2023-06-14T00:15:48;96992.25;;;9.44;100.00
498;BME280;39559;48.630;9.162;2023-06-14T00:18:14;96994.88;;;9.23;100.00
498;BME280;39559;48.630;9.162;2023-06-14T00:20:40;96991.53;;;9.21;100.00
498;BME280;39559;48.630;9.162;2023-06-14T00:23:07;96994.41;;;9.15;100.00
498;BME280;39559;48.630;9.162;2023-06-14T00:25:32;96995.66;;;9.26;100.00
498;BME280;39559;48.630;9.162;2023-06-14T00:29:57;96995.53;;;9.10;100.00
498;BME280;39559;48.630;9.162;2023-06-14T00:32:23;96994.81;;;9.06;100.00
498;BME280;39559;48.630;9.162;2023-06-14T00:34:51;96992.84;;;9.11;100.00
498;BME280;39559;48.630;9.162;2023-06-14T00:37:17;96991.19;;;9.10;100.00
498;BME280;39559;48.630;9.162;2023-06-14T00:39:42;96988.34;;;8.96;100.00
498;BME280;39559;48.630;9.162;2023-06-14T00:42:08;96986.75;;;9.12;100.00
498;BME280;39559;48.630;9.162;2023-06-14T00:44:33;96984.72;;;9.00;100.00
498;BME280;39559;48.630;9.162;2023-06-14T00:46:59;96988.47;;;8.93;100.00
498;BME280;39559;48.630;9.162;2023-06-14T00:49:25;96991.81;;;8.76;100.00
498;BME280;39559;48.630;9.162;2023-06-14T00:53:53;96985.81;;;8.75;100.00
498;BME280;39559;48.630;9.162;2023-06-14T00:56:19;96992.91;;;8.70;100.00
498;BME280;39559;48.630;9.162;2023-06-14T00:58:46;96995.56;;;8.69;100.00
498;BME280;39559;48.630;9.162;2023-06-14T01:01:11;96988.84;;;8.64;100.00
498;BME280;39559;48.630;9.162;2023-06-14T01:03:37;96986.59;;;8.57;100.00
498;BME280;39559;48.630;9.162;2023-06-14T01:09:16;96987.22;;;8.62;100.00
498;BME280;39559;48.630;9.162;2023-06-14T01:12:04;96990.59;;;8.43;100.00
498;BME280;39559;48.630;9.162;2023-06-14T01:14:52;96992.75;;;8.32;100.00
498;BME280;39559;48.630;9.162;2023-06-14T01:17:50;96993.03;;;8.26;100.00
498;BME280;39559;48.630;9.162;2023-06-14T01:20:20;96996.75;;;8.19;100.00
498;BME280;39559;48.630;9.162;2023-06-14T01:22:55;96994.94;;;8.21;100.00
498;BME280;39559;48.630;9.162;2023-06-14T01:25:22;96999.31;;;8.41;100.00
498;BME280;39559;48.630;9.162;2023-06-14T01:27:55;97001.22;;;8.36;100.00
498;BME280;39559;48.630;9.162;2023-06-14T01:30:23;96995.34;;;8.32;100.00
498;BME280;39559;48.630;9.162;2023-06-14T01:32:51;96999.03;;;8.26;100.00
498;BME280;39559;48.630;9.162;2023-06-14T01:35:18;96999.06;;;8.04;100.00
498;BME280;39559;48.630;9.162;2023-06-14T01:37:44;96998.91;;;8.07;100.00
498;BME280;39559;48.630;9.162;2023-06-14T01:41:47;96994.00;;;8.01;100.00
498;BME280;39559;48.630;9.162;2023-06-14T01:44:14;96989.94;;;7.96;100.00
498;BME280;39559;48.630;9.162;2023-06-14T01:46:42;96997.22;;;8.29;100.00
498;BME280;39559;48.630;9.162;2023-06-14T01:49:08;96996.34;;;8.07;100.00
498;BME280;39559;48.630;9.162;2023-06-14T01:51:33;96997.63;;;7.97;100.00
498;BME280;39559;48.630;9.162;2023-06-14T01:53:59;96995.84;;;7.77;100.00
498;BME280;39559;48.630;9.162;2023-06-14T01:56:26;96997.34;;;7.83;100.00
498;BME280;39559;48.630;9.162;2023-06-14T01:58:53;96996.97;;;7.70;100.00
498;BME280;39559;48.630;9.162;2023-06-14T02:01:20;96991.81;;;7.70;100.00
498;BME280;39559;48.630;9.162;2023-06-14T02:05:43;96995.59;;;7.61;100.00
498;BME280;39559;48.630;9.162;2023-06-14T02:08:09;96997.84;;;7.69;100.00
498;BME280;39559;48.630;9.162;2023-06-14T02:10:35;96994.59;;;7.64;100.00
498;BME280;39559;48.630;9.162;2023-06-14T02:13:00;97004.34;;;7.57;100.00
498;BME280;39559;48.630;9.162;2023-06-14T02:15:26;97003.03;;;7.69;100.00
498;BME280;39559;48.630;9.162;2023-06-14T02:17:53;97004.53;;;7.75;100.00
498;BME280;39559;48.630;9.162;2023-06-14T02:20:19;97004.00;;;7.66;100.00
498;BME280;39559;48.630;9.162;2023-06-14T02:22:45;96996.66;;;7.56;100.00
498;BME280;39559;48.630;9.162;2023-06-14T02:25:10;97002.56;;;7.59;100.00
498;BME280;39559;48.630;9.162;2023-06-14T02:29:41;96997.69;;;7.52;100.00
498;BME280;39559;48.630;9.162;2023-06-14T02:32:07;97001.94;;;7.75;100.00
498;BME280;39559;48.630;9.162;2023-06-14T02:34:37;97002.19;;;7.68;100.00
498;BME280;39559;48.630;9.162;2023-06-14T02:37:06;97001.34;;;7.46;100.00
498;BME280;39559;48.630;9.162;2023-06-14T02:39:32;96999.28;;;7.32;100.00
498;BME280;39559;48.630;9.162;2023-06-14T02:41:58;97000.25;;;7.29;100.00
498;BME280;39559;48.630;9.162;2023-06-14T02:44:27;97000.44;;;7.23;100.00
498;BME280;39559;48.630;9.162;2023-06-14T02:46:53;97004.25;;;7.37;100.00
498;BME280;39559;48.630;9.162;2023-06-14T02:49:21;96999.66;;;7.21;100.00
498;BME280;39559;48.630;9.162;2023-06-14T02:53:38;97003.59;;;7.32;100.00
498;BME280;39559;48.630;9.162;2023-06-14T02:56:04;97002.25;;;7.21;100.00
498;BME280;39559;48.630;9.162;2023-06-14T02:58:30;96997.97;;;7.20;100.00
498;BME280;39559;48.630;9.162;2023-06-14T03:00:56;97007.75;;;7.12;100.00
498;BME280;39559;48.630;9.162;2023-06-14T03:03:22;96992.16;;;7.15;100.00
498;BME280;39559;48.630;9.162;2023-06-14T03:05:50;97002.84;;;7.06;100.00
498;BME280;39559;48.630;9.162;2023-06-14T03:08:17;96996.75;;;7.07;100.00
498;BME280;39559;48.630;9.162;2023-06-14T03:10:45;96997.88;;;7.00;100.00
498;BME280;39559;48.630;9.162;2023-06-14T03:13:12;97004.84;;;6.98;100.00
498;BME280;39559;48.630;9.162;2023-06-14T03:17:36;97004.94;;;6.95;100.00
498;BME280;39559;48.630;9.162;2023-06-14T03:20:04;97005.16;;;6.88;100.00
498;BME280;39559;48.630;9.162;2023-06-14T03:22:31;97016.69;;;6.78;100.00
498;BME280;39559;48.630;9.162;2023-06-14T03:24:59;97016.44;;;6.86;100.00
498;BME280;39559;48.630;9.162;2023-06-14T03:27:25;97013.59;;;6.94;100.00
498;BME280;39559;48.630;9.162;2023-06-14T03:29:54;97018.94;;;6.87;100.00
498;BME280;39559;48.630;9.162;2023-06-14T03:32:19;97024.97;;;6.88;100.00
498;BME280;39559;48.630;9.162;2023-06-14T03:34:45;97023.38;;;6.84;100.00
498;BME280;39559;48.630;9.162;2023-06-14T03:37:11;97024.09;;;6.87;100.00
498;BME280;39559;48.630;9.162;2023-06-14T03:41:33;97022.41;;;6.88;100.00
498;BME280;39559;48.630;9.162;2023-06-14T03:43:58;97031.06;;;6.85;100.00
498;BME280;39559;48.630;9.162;2023-06-14T03:46:24;97032.66;;;6.89;100.00
498;BME280;39559;48.630;9.162;2023-06-14T03:48:49;97033.66;;;6.85;100.00
498;BME280;39559;48.630;9.162;2023-06-14T03:51:15;97033.88;;;6.79;100.00
498;BME280;39559;48.630;9.162;2023-06-14T03:53:41;97041.63;;;6.79;100.00
498;BME280;39559;48.630;9.162;2023-06-14T03:56:06;97032.72;;;6.88;100.00
498;BME280;39559;48.630;9.162;2023-06-14T03:58:32;97033.88;;;6.79;100.00
498;BME280;39559;48.630;9.162;2023-06-14T04:00:58;97049.47;;;6.76;100.00
498;BME280;39559;48.630;9.162;2023-06-14T04:05:31;97048.56;;;6.77;100.00
498;BME280;39559;48.630;9.162;2023-06-14T04:07:57;97054.28;;;6.85;100.00
498;BME280;39559;48.630;9.162;2023-06-14T04:10:25;97052.78;;;6.80;100.00
498;BME280;39559;48.630;9.162;2023-06-14T04:12:50;97055.31;;;6.81;100.00
498;BME280;39559;48.630;9.162;2023-06-14T04:15:17;97061.56;;;6.74;100.00
498;BME280;39559;48.630;9.162;2023-06-14T04:17:43;97067.09;;;6.88;100.00
498;BME280;39559;48.630;9.162;2023-06-14T04:20:08;97060.25;;;6.87;100.00
498;BME280;39559;48.630;9.162;2023-06-14T04:22:35;97070.69;;;6.84;100.00
498;BME280;39559;48.630;9.162;2023-06-14T04:25:02;97069.84;;;6.84;100.00
498;BME280;39559;48.630;9.162;2023-06-14T04:29:29;97065.22;;;6.94;100.00
498;BME280;39559;48.630;9.162;2023-06-14T04:31:55;97061.63;;;6.98;100.00
498;BME280;39559;48.630;9.162;2023-06-14T04:34:27;97061.47;;;7.02;100.00
498;BME280;39559;48.630;9.162;2023-06-14T04:36:57;97054.66;;;7.00;100.00
498;BME280;39559;48.630;9.162;2023-06-14T04:39:23;97062.75;;;7.14;100.00
498;BME280;39559;48.630;9.162;2023-06-14T04:41:50;97066.06;;;7.18;100.00
498;BME280;39559;48.630;9.162;2023-06-14T04:44:23;97067.69;;;7.20;100.00
498;BME280;39559;48.630;9.162;2023-06-14T04:46:56;97068.50;;;7.22;100.00
498;BME280;39559;48.630;9.162;2023-06-14T04:49:24;97073.44;;;7.28;100.00
498;BME280;39559;48.630;9.162;2023-06-14T04:53:27;97070.47;;;7.39;100.00
498;BME280;39559;48.630;9.162;2023-06-14T04:55:54;97077.59;;;7.56;100.00
498;BME280;39559;48.630;9.162;2023-06-14T04:58:20;97071.41;;;7.60;100.00
498;BME280;39559;48.630;9.162;2023-06-14T05:00:45;97087.78;;;7.61;100.00
498;BME280;39559;48.630;9.162;2023-06-14T05:03:11;97085.78;;;7.67;100.00
498;BME280;39559;48.630;9.162;2023-06-14T05:05:40;97086.34;;;7.76;100.00
498;BME280;39559;48.630;9.162;2023-06-14T05:08:06;97086.31;;;7.77;100.00
498;BME280;39559;48.630;9.162;2023-06-14T05:10:31;97096.28;;;7.86;100.00
498;BME280;39559;48.630;9.162;2023-06-14T05:13:00;97095.09;;;7.95;100.00
498;BME280;39559;48.630;9.162;2023-06-14T05:17:33;97094.19;;;8.18;100.00
498;BME280;39559;48.630;9.162;2023-06-14T05:20:01;97093.66;;;8.32;100.00
498;BME280;39559;48.630;9.162;2023-06-14T05:22:27;97089.25;;;8.34;100.00
498;BME280;39559;48.630;9.162;2023-06-14T05:24:53;97093.28;;;8.41;100.00
498;BME280;39559;48.630;9.162;2023-06-14T05:27:18;97093.72;;;8.53;100.00
498;BME280;39559;48.630;9.162;2023-06-14T05:29:44;97098.66;;;8.59;100.00
498;BME280;39559;48.630;9.162;2023-06-14T05:32:09;97093.81;;;8.72;100.00
498;BME280;39559;48.630;9.162;2023-06-14T05:34:35;97096.09;;;8.79;100.00
498;BME280;39559;48.630;9.162;2023-06-14T05:37:01;97094.00;;;8.88;100.00
498;BME280;39559;48.630;9.162;2023-06-14T05:41:27;97093.94;;;9.10;100.00
498;BME280;39559;48.630;9.162;2023-06-14T05:43:56;97100.06;;;9.28;100.00
498;BME280;39559;48.630;9.162;2023-06-14T05:46:22;97096.16;;;9.38;100.00
498;BME280;39559;48.630;9.162;2023-06-14T05:48:54;97087.44;;;9.59;100.00
498;BME280;39559;48.630;9.162;2023-06-14T05:51:20;97091.91;;;9.75;100.00
498;BME280;39559;48.630;9.162;2023-06-14T05:53:49;97091.16;;;9.92;100.00
498;BME280;39559;48.630;9.162;2023-06-14T05:56:15;97092.50;;;10.01;100.00
498;BME280;39559;48.630;9.162;2023-06-14T05:58:43;97098.47;;;10.20;100.00
498;BME280;39559;48.630;9.162;2023-06-14T06:01:09;97090.00;;;10.35;100.00
498;BME280;39559;48.630;9.162;2023-06-14T06:05:22;97093.09;;;10.61;100.00
498;BME280;39559;48.630;9.162;2023-06-14T06:07:47;97095.69;;;10.79;100.00
498;BME280;39559;48.630;9.162;2023-06-14T06:10:13;97102.72;;;10.94;100.00
498;BME280;39559;48.630;9.162;2023-06-14T06:12:40;97107.75;;;11.14;100.00
498;BME280;39559;48.630;9.162;2023-06-14T06:15:06;97096.25;;;11.36;100.00
498;BME280;39559;48.630;9.162;2023-06-14T06:17:33;97093.84;;;11.49;100.00
498;BME280;39559;48.630;9.162;2023-06-14T06:19:59;97097.00;;;11.71;100.00
498;BME280;39559;48.630;9.162;2023-06-14T06:22:24;97097.63;;;11.93;100.00
498;BME280;39559;48.630;9.162;2023-06-14T06:24:50;97099.88;;;12.15;100.00
498;BME280;39559;48.630;9.162;2023-06-14T06:29:20;97097.84;;;12.52;100.00
498;BME280;39559;48.630;9.162;2023-06-14T06:31:46;97095.59;;;12.76;100.00
498;BME280;39559;48.630;9.162;2023-06-14T06:34:12;97096.09;;;12.82;100.00
498;BME280;39559;48.630;9.162;2023-06-14T06:36:37;97094.53;;;12.94;100.00
498;BME280;39559;48.630;9.162;2023-06-14T06:39:03;97102.38;;;13.09;100.00
498;BME280;39559;48.630;9.162;2023-06-14T06:41:36;97107.06;;;13.18;100.00
498;BME280;39559;48.630;9.162;2023-06-14T06:44:02;97098.16;;;13.36;100.00
498;BME280;39559;48.630;9.162;2023-06-14T06:46:28;97106.75;;;13.53;100.00
498;BME280;39559;48.630;9.162;2023-06-14T06:48:54;97103.94;;;13.70;99.02
498;BME280;39559;48.630;9.162;2023-06-14T06:53:19;97118.28;;;14.06;98.95
498;BME280;39559;48.630;9.162;2023-06-14T06:55:44;97109.09;;;14.13;95.54
498;BME280;39559;48.630;9.162;2023-06-14T06:58:10;97113.28;;;14.30;90.42
498;BME280;39559;48.630;9.162;2023-06-14T07:00:36;97117.56;;;14.58;90.36
498;BME280;39559;48.630;9.162;2023-06-14T07:03:01;97125.78;;;14.67;85.93
498;BME280;39559;48.630;9.162;2023-06-14T07:05:29;97120.59;;;14.80;82.66
498;BME280;39559;48.630;9.162;2023-06-14T07:07:56;97122.50;;;14.90;80.54
498;BME280;39559;48.630;9.162;2023-06-14T07:10:21;97120.75;;;15.29;78.91
498;BME280;39559;48.630;9.162;2023-06-14T07:12:47;97123.38;;;15.42;75.77
498;BME280;39559;48.630;9.162;2023-06-14T07:17:17;97122.34;;;15.45;77.96
498;BME280;39559;48.630;9.162;2023-06-14T07:19:43;97132.09;;;15.68;69.89
498;BME280;39559;48.630;9.162;2023-06-14T07:22:08;97142.56;;;15.94;74.64
498;BME280;39559;48.630;9.162;2023-06-14T07:24:34;97136.34;;;16.08;70.01
498;BME280;39559;48.630;9.162;2023-06-14T07:27:06;97131.31;;;16.18;66.74
498;BME280;39559;48.630;9.162;2023-06-14T07:29:33;97135.66;;;16.30;68.18
498;BME280;39559;48.630;9.162;2023-06-14T07:31:58;97133.84;;;16.43;69.00
498;BME280;39559;48.630;9.162;2023-06-14T07:34:24;97135.16;;;16.49;66.41
498;BME280;39559;48.630;9.162;2023-06-14T07:36:50;97127.53;;;16.70;63.63
498;BME280;39559;48.630;9.162;2023-06-14T07:41:16;97137.34;;;17.03;61.64
498;BME280;39559;48.630;9.162;2023-06-14T07:43:41;97144.00;;;16.96;63.01
498;BME280;39559;48.630;9.162;2023-06-14T07:46:07;97152.63;;;17.10;59.93
498;BME280;39559;48.630;9.162;2023-06-14T07:48:33;97150.00;;;17.10;58.38
498;BME280;39559;48.630;9.162;2023-06-14T07:50:59;97152.91;;;17.18;61.20
498;BME280;39559;48.630;9.162;2023-06-14T07:53:26;97154.16;;;17.36;59.73
498;BME280;39559;48.630;9.162;2023-06-14T07:55:51;97150.13;;;17.55;57.84
498;BME280;39559;48.630;9.162;2023-06-14T07:58:17;97153.81;;;17.52;57.59
498;BME280;39559;48.630;9.162;2023-06-14T08:00:43;97148.31;;;17.55;60.95
498;BME280;39559;48.630;9.162;2023-06-14T08:05:17;97147.03;;;17.72;58.71
498;BME280;39559;48.630;9.162;2023-06-14T08:07:43;97149.22;;;17.90;54.88
498;BME280;39559;48.630;9.162;2023-06-14T08:10:09;97151.88;;;18.01;58.45
498;BME280;39559;48.630;9.162;2023-06-14T08:12:34;97143.13;;;18.12;58.56
498;BME280;39559;48.630;9.162;2023-06-14T08:15:00;97141.81;;;18.06;56.61
498;BME280;39559;48.630;9.162;2023-06-14T08:17:26;97146.53;;;18.46;57.36
498;BME280;39559;48.630;9.162;2023-06-14T08:19:52;97146.53;;;18.46;57.25
498;BME280;39559;48.630;9.162;2023-06-14T08:22:20;97140.69;;;18.42;55.17
498;BME280;39559;48.630;9.162;2023-06-14T08:24:47;97156.78;;;18.60;54.59
498;BME280;39559;48.630;9.162;2023-06-14T08:29:12;97151.16;;;18.65;55.43
498;BME280;39559;48.630;9.162;2023-06-14T08:31:37;97154.56;;;18.77;55.54
498;BME280;39559;48.630;9.162;2023-06-14T08:34:03;97154.19;;;18.93;54.34
498;BME280;39559;48.630;9.162;2023-06-14T08:36:28;97158.88;;;18.89;51.30
498;BME280;39559;48.630;9.162;2023-06-14T08:38:54;97156.00;;;18.92;54.28
498;BME280;39559;48.630;9.162;2023-06-14T08:41:21;97160.06;;;18.96;52.42
498;BME280;39559;48.630;9.162;2023-06-14T08:43:48;97165.53;;;19.05;53.80
498;BME280;39559;48.630;9.162;2023-06-14T08:46:17;97163.56;;;19.18;53.16
498;BME280;39559;48.630;9.162;2023-06-14T08:48:49;97164.25;;;19.62;53.09
498;BME280;39559;48.630;9.162;2023-06-14T08:53:13;97158.41;;;19.59;51.31
498;BME280;39559;48.630;9.162;2023-06-14T08:55:45;97160.78;;;19.41;52.40
498;BME280;39559;48.630;9.162;2023-06-14T08:58:13;97161.13;;;19.47;54.51
498;BME280;39559;48.630;9.162;2023-06-14T09:00:39;97163.22;;;19.53;54.22
498;BME280;39559;48.630;9.162;2023-06-14T09:03:07;97164.78;;;19.77;53.36
498;BME280;39559;48.630;9.162;2023-06-14T09:05:39;97161.34;;;19.86;52.07
498;BME280;39559;48.630;9.162;2023-06-14T09:08:05;97152.41;;;19.99;51.08
498;BME280;39559;48.630;9.162;2023-06-14T09:10:31;97153.53;;;20.06;53.57
498;BME280;39559;48.630;9.162;2023-06-14T09:13:03;97165.06;;;20.05;52.79
498;BME280;39559;48.630;9.162;2023-06-14T09:17:08;97169.88;;;20.30;52.87
498;BME280;39559;48.630;9.162;2023-06-14T09:19:34;97165.19;;;20.44;49.26
498;BME280;39559;48.630;9.162;2023-06-14T09:22:01;97157.00;;;20.47;50.58
498;BME280;39559;48.630;9.162;2023-06-14T09:24:26;97161.84;;;20.42;51.59
498;BME280;39559;48.630;9.162;2023-06-14T09:26:53;97158.94;;;20.45;51.70
498;BME280;39559;48.630;9.162;2023-06-14T09:29:18;97161.28;;;20.48;49.50
498;BME280;39559;48.630;9.162;2023-06-14T09:31:47;97161.50;;;20.66;49.08
498;BME280;39559;48.630;9.162;2023-06-14T09:34:13;97157.34;;;20.73;49.10
498;BME280;39559;48.630;9.162;2023-06-14T09:36:39;97163.06;;;21.07;48.33
498;BME280;39559;48.630;9.162;2023-06-14T09:41:05;97158.63;;;21.08;47.70
498;BME280;39559;48.630;9.162;2023-06-14T09:43:39;97162.06;;;20.69;45.38
498;BME280;39559;48.630;9.162;2023-06-14T09:46:06;97162.78;;;20.81;45.58
498;BME280;39559;48.630;9.162;2023-06-14T09:48:31;97163.34;;;21.04;47.09
498;BME280;39559;48.630;9.162;2023-06-14T09:50:58;97172.13;;;21.05;45.49
498;BME280;39559;48.630;9.162;2023-06-14T09:53:25;97170.44;;;20.94;45.83
498;BME280;39559;48.630;9.162;2023-06-14T09:55:59;97159.88;;;21.14;47.10
498;BME280;39559;48.630;9.162;2023-06-14T09:58:26;97161.53;;;21.15;45.57
498;BME280;39559;48.630;9.162;2023-06-14T10:00:54;97159.59;;;21.36;47.31
498;BME280;39559;48.630;9.162;2023-06-14T10:05:07;97161.22;;;21.37;45.06
498;BME280;39559;48.630;9.162;2023-06-14T10:07:48;97164.88;;;21.36;41.25
498;BME280;39559;48.630;9.162;2023-06-14T10:10:17;97159.59;;;21.46;43.46
498;BME280;39559;48.630;9.162;2023-06-14T10:12:44;97157.75;;;21.66;43.28
498;BME280;39559;48.630;9.162;2023-06-14T10:15:17;97141.97;;;21.84;43.53
498;BME280;39559;48.630;9.162;2023-06-14T10:17:56;97151.53;;;21.47;43.79
498;BME280;39559;48.630;9.162;2023-06-14T10:23:22;97145.06;;;21.70;43.55
498;BME280;39559;48.630;9.162;2023-06-14T10:25:50;97147.84;;;21.68;43.77
498;BME280;39559;48.630;9.162;2023-06-14T10:29:09;97157.69;;;21.85;42.59
498;BME280;39559;48.630;9.162;2023-06-14T10:31:47;97155.94;;;22.04;40.19
498;BME280;39559;48.630;9.162;2023-06-14T10:34:24;97152.16;;;22.16;41.38
498;BME280;39559;48.630;9.162;2023-06-14T10:37:11;97148.63;;;22.26;40.76
498;BME280;39559;48.630;9.162;2023-06-14T10:39:42;97141.94;;;21.94;40.60
498;BME280;39559;48.630;9.162;2023-06-14T10:42:08;97147.53;;;21.91;41.44
498;BME280;39559;48.630;9.162;2023-06-14T10:47:07;97149.59;;;22.24;40.20
498;BME280;39559;48.630;9.162;2023-06-14T10:49:40;97147.09;;;22.33;40.41
498;BME280;39559;48.630;9.162;2023-06-14T10:53:00;97145.78;;;22.09;40.71
498;BME280;39559;48.630;9.162;2023-06-14T10:55:34;97150.03;;;22.20;39.89
498;BME280;39559;48.630;9.162;2023-06-14T10:58:01;97138.88;;;22.54;39.19
498;BME280;39559;48.630;9.162;2023-06-14T11:00:29;97135.94;;;22.57;38.72
498;BME280;39559;48.630;9.162;2023-06-14T11:05:54;97135.03;;;22.66;39.44
498;BME280;39559;48.630;9.162;2023-06-14T11:08:40;97136.03;;;22.10;40.09
498;BME280;39559;48.630;9.162;2023-06-14T11:11:10;97147.53;;;22.18;42.18
498;BME280;39559;48.630;9.162;2023-06-14T11:13:45;97149.09;;;22.49;40.83
498;BME280;39559;48.630;9.162;2023-06-14T11:16:53;97143.97;;;22.10;40.62
498;BME280;39559;48.630;9.162;2023-06-14T11:19:18;97141.25;;;22.75;38.86
498;BME280;39559;48.630;9.162;2023-06-14T11:21:47;97141.00;;;22.68;38.90
498;BME280;39559;48.630;9.162;2023-06-14T11:24:17;97128.78;;;23.03;39.99
498;BME280;39559;48.630;9.162;2023-06-14T11:26:42;97136.16;;;23.35;39.94
498;BME280;39559;48.630;9.162;2023-06-14T11:29:08;97137.78;;;22.74;38.51
498;BME280;39559;48.630;9.162;2023-06-14T11:31:33;97145.22;;;22.61;38.28
498;BME280;39559;48.630;9.162;2023-06-14T11:33:59;97143.63;;;22.50;39.12
498;BME280;39559;48.630;9.162;2023-06-14T11:36:30;97140.50;;;22.37;41.17
498;BME280;39559;48.630;9.162;2023-06-14T11:40:49;97134.47;;;22.27;38.87
498;BME280;39559;48.630;9.162;2023-06-14T11:43:15;97130.91;;;22.81;41.47
498;BME280;39559;48.630;9.162;2023-06-14T11:45:40;97130.31;;;23.24;38.90
498;BME280;39559;48.630;9.162;2023-06-14T11:48:06;97126.47;;;23.44;38.68
498;BME280;39559;48.630;9.162;2023-06-14T11:50:32;97136.13;;;23.09;38.57
498;BME280;39559;48.630;9.162;2023-06-14T11:53:00;97135.00;;;22.76;38.98
498;BME280;39559;48.630;9.162;2023-06-14T11:55:38;97121.09;;;22.46;41.96
498;BME280;39559;48.630;9.162;2023-06-14T11:58:04;97133.00;;;22.78;40.28
498;BME280;39559;48.630;9.162;2023-06-14T12:00:30;97133.81;;;22.60;41.05
498;BME280;39559;48.630;9.162;2023-06-14T12:04:48;97128.72;;;21.56;41.65
498;BME280;39559;48.630;9.162;2023-06-14T12:07:15;97122.84;;;21.62;43.12
498;BME280;39559;48.630;9.162;2023-06-14T12:12:36;97133.84;;;21.58;41.93
498;BME280;39559;48.630;9.162;2023-06-14T12:15:06;97122.38;;;21.77;42.04
498;BME280;39559;48.630;9.162;2023-06-14T12:17:36;97122.38;;;22.42;41.24
498;BME280;39559;48.630;9.162;2023-06-14T12:20:09;97124.72;;;23.09;39.21
498;BME280;39559;48.630;9.162;2023-06-14T12:22:52;97128.47;;;23.24;40.85
498;BME280;39559;48.630;9.162;2023-06-14T12:25:30;97119.75;;;23.32;38.90
498;BME280;39559;48.630;9.162;2023-06-14T12:28:41;97129.78;;;23.20;39.75
498;BME280;39559;48.630;9.162;2023-06-14T12:31:11;97126.50;;;22.54;40.22
498;BME280;39559;48.630;9.162;2023-06-14T12:33:38;97125.16;;;22.13;39.66
498;BME280;39559;48.630;9.162;2023-06-14T12:36:08;97116.81;;;22.08;39.00
498;BME280;39559;48.630;9.162;2023-06-14T12:38:35;97116.94;;;22.97;41.91
498;BME280;39559;48.630;9.162;2023-06-14T12:41:01;97121.34;;;23.25;41.90
498;BME280;39559;48.630;9.162;2023-06-14T12:43:27;97117.84;;;23.42;37.81
498;BME280;39559;48.630;9.162;2023-06-14T12:45:53;97120.81;;;23.65;39.93
498;BME280;39559;48.630;9.162;2023-06-14T12:48:19;97112.72;;;24.01;38.64
498;BME280;39559;48.630;9.162;2023-06-14T12:52:39;97115.34;;;24.27;35.98
498;BME280;39559;48.630;9.162;2023-06-14T12:55:05;97109.84;;;23.86;35.99
498;BME280;39559;48.630;9.162;2023-06-14T12:57:31;97116.09;;;23.51;37.10
498;BME280;39559;48.630;9.162;2023-06-14T12:59:56;97116.25;;;23.05;39.18
498;BME280;39559;48.630;9.162;2023-06-14T13:02:22;97118.50;;;23.44;39.40
498;BME280;39559;48.630;9.162;2023-06-14T13:04:49;97120.66;;;23.67;39.94
498;BME280;39559;48.630;9.162;2023-06-14T13:07:15;97125.38;;;23.55;37.51
498;BME280;39559;48.630;9.162;2023-06-14T13:09:41;97119.47;;;23.87;37.03
498;BME280;39559;48.630;9.162;2023-06-14T13:12:08;97118.31;;;23.90;37.51
498;BME280;39559;48.630;9.162;2023-06-14T13:16:34;97122.78;;;24.32;36.65
498;BME280;39559;48.630;9.162;2023-06-14T13:19:01;97120.06;;;24.07;36.54
498;BME280;39559;48.630;9.162;2023-06-14T13:21:26;97115.63;;;24.16;38.37
498;BME280;39559;48.630;9.162;2023-06-14T13:23:52;97131.91;;;23.43;36.11
498;BME280;39559;48.630;9.162;2023-06-14T13:26:17;97126.56;;;22.98;37.74
498;BME280;39559;48.630;9.162;2023-06-14T13:28:43;97126.44;;;23.00;37.10
498;BME280;39559;48.630;9.162;2023-06-14T13:31:09;97131.13;;;23.24;38.14
498;BME280;39559;48.630;9.162;2023-06-14T13:33:35;97132.78;;;23.77;37.08
498;BME280;39559;48.630;9.162;2023-06-14T13:36:01;97130.44;;;23.92;36.48
498;BME280;39559;48.630;9.162;2023-06-14T13:40:25;97124.88;;;24.12;36.71
498;BME280;39559;48.630;9.162;2023-06-14T13:42:51;97127.00;;;24.08;37.10
498;BME280;39559;48.630;9.162;2023-06-14T13:45:16;97120.44;;;24.21;37.45
498;BME280;39559;48.630;9.162;2023-06-14T13:47:42;97113.25;;;24.05;37.01
498;BME280;39559;48.630;9.162;2023-06-14T13:50:08;97122.47;;;24.35;36.55
498;BME280;39559;48.630;9.162;2023-06-14T13:52:33;97111.31;;;24.15;37.07
498;BME280;39559;48.630;9.162;2023-06-14T13:55:00;97113.31;;;23.61;38.05
498;BME280;39559;48.630;9.162;2023-06-14T13:57:26;97119.81;;;23.66;39.49
498;BME280;39559;48.630;9.162;2023-06-14T13:59:51;97110.06;;;23.67;39.50
498;BME280;39559;48.630;9.162;2023-06-14T14:04:19;97111.16;;;23.82;38.69
498;BME280;39559;48.630;9.162;2023-06-14T14:06:45;97106.81;;;24.15;37.72
498;BME280;39559;48.630;9.162;2023-06-14T14:09:11;97107.84;;;24.23;36.05
498;BME280;39559;48.630;9.162;2023-06-14T14:11:36;97107.06;;;24.39;38.00
498;BME280;39559;48.630;9.162;2023-06-14T14:14:07;97092.97;;;24.38;37.30
498;BME280;39559;48.630;9.162;2023-06-14T14:16:33;97101.78;;;24.47;37.83
498;BME280;39559;48.630;9.162;2023-06-14T14:19:00;97100.75;;;24.31;35.98
498;BME280;39559;48.630;9.162;2023-06-14T14:21:27;97111.88;;;24.35;36.35
498;BME280;39559;48.630;9.162;2023-06-14T14:23:52;97100.03;;;24.13;39.05
498;BME280;39559;48.630;9.162;2023-06-14T14:28:13;97108.59;;;23.72;36.50
498;BME280;39559;48.630;9.162;2023-06-14T14:30:42;97109.91;;;24.03;37.91
498;BME280;39559;48.630;9.162;2023-06-14T14:33:08;97104.72;;;24.36;39.31
498;BME280;39559;48.630;9.162;2023-06-14T14:35:33;97108.53;;;24.33;38.87
498;BME280;39559;48.630;9.162;2023-06-14T14:37:59;97108.81;;;24.56;37.70
498;BME280;39559;48.630;9.162;2023-06-14T14:40:25;97108.41;;;24.43;38.27
498;BME280;39559;48.630;9.162;2023-06-14T14:42:50;97108.00;;;24.21;37.20